Time;durP1;ratioP1;P1;durP2;ratioP2;P2;SDS_P1;SDS_P2;PMS_P1;PMS_P2;Temp;Humidity;BMP_temperature;BMP_pressure;BME280_temperature;BME280_humidity;BME280_pressure;Samples;Min_cycle;Max_cycle;Signal;HPM_P1;HPM_P2
2022/02/25 00:00:45;;;;;;;2.55;0.88;;;17.70;44.10;;;;;;5100663;28;20061;-55
2022/02/25 00:03:13;;;;;;;1.60;0.80;;;17.80;44.10;;;;;;5100050;28;20382;-53
2022/02/25 00:05:39;;;;;;;1.38;0.80;;;17.70;44.10;;;;;;5098128;28;20024;-53
2022/02/25 00:08:05;;;;;;;1.73;0.60;;;17.70;44.00;;;;;;5096265;28;20509;-54
2022/02/25 00:10:34;;;;;;;2.75;0.60;;;17.70;44.00;;;;;;5096210;28;20032;-54
2022/02/25 00:13:01;;;;;;;1.13;0.60;;;17.70;44.10;;;;;;5096270;28;20036;-55
2022/02/25 00:15:26;;;;;;;1.08;0.60;;;17.70;44.10;;;;;;5095613;28;20485;-55
2022/02/25 00:17:52;;;;;;;1.02;0.60;;;17.70;44.10;;;;;;5095743;28;20032;-57
2022/02/25 00:20:18;;;;;;;2.50;1.08;;;17.70;44.10;;;;;;5095859;28;20032;-55
2022/02/25 00:22:47;;;;;;;1.95;0.70;;;17.70;44.10;;;;;;5095498;28;20020;-55
2022/02/25 00:25:13;;;;;;;1.65;0.85;;;17.70;43.90;;;;;;5095246;28;20020;-55
2022/02/25 00:27:40;;;;;;;0.90;0.50;;;17.70;44.00;;;;;;5095089;28;20019;-55
2022/02/25 00:30:06;;;;;;;2.00;0.85;;;17.70;43.90;;;;;;5095639;28;20008;-55
2022/02/25 00:32:32;;;;;;;1.10;0.60;;;17.60;44.00;;;;;;5096028;28;20074;-54
2022/02/25 00:34:58;;;;;;;1.65;0.70;;;17.70;44.00;;;;;;5097109;28;20008;-54
2022/02/25 00:37:23;;;;;;;2.25;0.60;;;17.70;44.00;;;;;;5095263;28;20024;-54
2022/02/25 00:39:49;;;;;;;1.85;0.68;;;17.70;44.10;;;;;;5095625;28;20548;-55
2022/02/25 00:42:15;;;;;;;1.45;0.52;;;17.60;44.10;;;;;;5094804;28;20089;-55
2022/02/25 00:44:41;;;;;;;3.13;0.80;;;17.60;44.00;;;;;;5095235;28;20107;-55
2022/02/25 00:47:08;;;;;;;2.33;0.80;;;17.60;44.00;;;;;;5095341;28;20026;-56
2022/02/25 00:49:33;;;;;;;2.60;0.77;;;17.60;43.90;;;;;;5094713;28;20008;-54
2022/02/25 00:52:00;;;;;;;1.42;0.70;;;17.60;43.80;;;;;;5094876;28;20024;-55
2022/02/25 00:54:26;;;;;;;1.58;0.85;;;17.60;43.90;;;;;;5094880;28;20473;-55
2022/02/25 00:56:52;;;;;;;1.48;0.70;;;17.60;43.80;;;;;;5094518;28;20028;-54
2022/02/25 00:59:18;;;;;;;1.42;0.60;;;17.60;43.90;;;;;;5094433;28;20107;-55
2022/02/25 01:01:46;;;;;;;1.67;0.80;;;17.60;43.90;;;;;;5094160;28;20107;-56
2022/02/25 01:04:12;;;;;;;2.35;0.68;;;17.60;43.60;;;;;;5094646;28;20104;-55
2022/02/25 01:06:39;;;;;;;1.42;0.63;;;17.60;43.80;;;;;;5094306;28;20419;-55
2022/02/25 01:09:05;;;;;;;1.45;0.60;;;17.60;43.80;;;;;;5094650;28;20020;-55
2022/02/25 01:11:31;;;;;;;2.85;0.95;;;17.60;43.80;;;;;;5094639;28;20013;-57
2022/02/25 01:13:57;;;;;;;3.60;0.68;;;17.60;43.90;;;;;;5094447;28;20425;-54
2022/02/25 01:16:24;;;;;;;2.28;0.68;;;17.50;43.70;;;;;;5094454;28;20038;-56
2022/02/25 01:18:50;;;;;;;2.72;0.90;;;17.60;43.80;;;;;;5093443;28;20020;-54
2022/02/25 01:21:15;;;;;;;1.95;0.70;;;17.60;43.70;;;;;;5076186;28;20039;-55
2022/02/25 01:23:42;;;;;;;1.45;0.70;;;17.60;43.80;;;;;;5094565;28;20463;-55
2022/02/25 01:26:08;;;;;;;1.38;0.70;;;17.50;43.80;;;;;;5094544;28;20024;-54
2022/02/25 01:28:35;;;;;;;4.15;0.70;;;17.50;43.50;;;;;;5094453;28;20031;-55
2022/02/25 01:31:02;;;;;;;1.63;0.65;;;17.50;43.80;;;;;;5094439;28;20119;-56
2022/02/25 01:33:29;;;;;;;0.95;0.55;;;17.50;43.70;;;;;;5094413;28;20020;-55
2022/02/25 01:35:55;;;;;;;2.15;0.73;;;17.50;43.80;;;;;;5093706;28;20107;-52
2022/02/25 01:38:21;;;;;;;2.13;0.95;;;17.50;43.70;;;;;;5093904;28;20056;-54
2022/02/25 01:40:49;;;;;;;1.77;0.77;;;17.50;43.70;;;;;;5093842;28;20463;-53
2022/02/25 01:43:16;;;;;;;3.30;0.70;;;17.50;43.60;;;;;;5093619;28;20114;-54
2022/02/25 01:45:44;;;;;;;1.08;0.57;;;17.50;43.50;;;;;;5094187;28;20004;-55
2022/02/25 01:48:11;;;;;;;1.30;0.70;;;17.50;43.70;;;;;;5093947;28;20526;-54
2022/02/25 01:50:37;;;;;;;0.90;0.70;;;17.50;43.70;;;;;;5094208;28;20024;-52
2022/02/25 01:53:06;;;;;;;2.33;0.80;;;17.50;43.70;;;;;;5092436;28;20466;-54
2022/02/25 01:55:33;;;;;;;1.42;0.70;;;17.40;43.50;;;;;;5093724;28;20027;-55
2022/02/25 01:57:59;;;;;;;1.50;0.70;;;17.50;43.60;;;;;;5093649;28;20012;-55
2022/02/25 02:00:25;;;;;;;1.30;0.63;;;17.50;43.60;;;;;;5093234;28;20502;-54
2022/02/25 02:02:51;;;;;;;1.90;0.63;;;17.40;43.50;;;;;;5093391;28;20012;-55
2022/02/25 02:05:17;;;;;;;2.78;1.00;;;17.40;43.50;;;;;;5093599;28;20011;-55
2022/02/25 02:07:43;;;;;;;1.20;0.70;;;17.40;43.40;;;;;;5093375;28;20020;-54
2022/02/25 02:10:09;;;;;;;1.02;0.65;;;17.40;43.70;;;;;;5093310;28;20386;-55
2022/02/25 02:12:35;;;;;;;1.45;0.65;;;17.40;43.40;;;;;;5091412;28;20487;-55
2022/02/25 02:15:01;;;;;;;1.92;0.80;;;17.40;43.50;;;;;;5093132;28;20087;-54
2022/02/25 02:17:27;;;;;;;1.88;0.90;;;17.40;43.50;;;;;;5093223;28;20386;-54
2022/02/25 02:19:53;;;;;;;1.13;0.50;;;17.40;43.50;;;;;;5094477;28;20023;-53
2022/02/25 02:22:25;;;;;;;2.55;0.90;;;17.40;43.40;;;;;;5092491;28;20450;-54
2022/02/25 02:24:51;;;;;;;2.00;0.77;;;17.40;43.50;;;;;;5093219;28;20069;-52
2022/02/25 02:27:17;;;;;;;1.23;0.70;;;17.40;43.60;;;;;;5091702;28;20013;-55
2022/02/25 02:29:44;;;;;;;1.55;0.70;;;17.40;43.40;;;;;;5093213;28;20027;-54
2022/02/25 02:32:09;;;;;;;1.88;0.80;;;17.40;43.60;;;;;;5092874;28;20035;-53
2022/02/25 02:34:35;;;;;;;2.30;0.75;;;17.40;43.50;;;;;;5091954;28;20024;-53
2022/02/25 02:37:01;;;;;;;1.95;0.70;;;17.40;43.40;;;;;;5092155;28;20069;-55
2022/02/25 02:39:27;;;;;;;1.45;0.63;;;17.40;43.50;;;;;;5093009;28;20073;-54
2022/02/25 02:41:54;;;;;;;2.50;0.65;;;17.30;43.40;;;;;;5094093;28;20052;-54
2022/02/25 02:44:22;;;;;;;2.33;0.98;;;17.30;43.40;;;;;;5092022;28;20012;-54
2022/02/25 02:46:48;;;;;;;1.95;0.90;;;17.40;43.50;;;;;;5093274;28;20020;-54
2022/02/25 02:49:15;;;;;;;1.52;0.77;;;17.30;43.20;;;;;;5093131;28;20474;-53
2022/02/25 02:51:42;;;;;;;2.22;0.80;;;17.30;43.20;;;;;;5093641;28;20359;-54
2022/02/25 02:54:10;;;;;;;1.77;0.90;;;17.30;43.40;;;;;;5093342;28;20028;-53
2022/02/25 02:56:35;;;;;;;1.63;0.70;;;17.30;43.30;;;;;;5092805;28;20024;-55
2022/02/25 02:59:02;;;;;;;1.70;0.65;;;17.30;43.30;;;;;;5092598;28;20075;-52
2022/02/25 03:01:29;;;;;;;1.48;0.90;;;17.30;43.30;;;;;;5092695;28;20494;-54
2022/02/25 03:03:56;;;;;;;2.88;0.80;;;17.30;43.10;;;;;;5093027;28;20467;-55
2022/02/25 03:06:23;;;;;;;0.93;0.60;;;17.30;43.00;;;;;;5093489;28;20466;-54
2022/02/25 03:08:49;;;;;;;1.50;0.80;;;17.30;43.30;;;;;;5093790;28;20390;-55
2022/02/25 03:11:16;;;;;;;2.67;0.80;;;17.30;43.10;;;;;;5094655;28;20023;-54
2022/02/25 03:13:42;;;;;;;2.55;1.08;;;17.30;43.30;;;;;;5093526;28;20024;-53
2022/02/25 03:16:08;;;;;;;1.63;0.77;;;17.30;43.20;;;;;;5091430;28;20072;-54
2022/02/25 03:18:34;;;;;;;2.78;0.82;;;17.30;43.20;;;;;;5092819;28;20056;-54
2022/02/25 03:21:00;;;;;;;2.83;1.10;;;17.30;43.30;;;;;;5092765;28;20483;-54
2022/02/25 03:23:26;;;;;;;3.28;0.90;;;17.20;43.20;;;;;;5093783;28;20053;-53
2022/02/25 03:25:53;;;;;;;1.80;0.80;;;17.30;43.30;;;;;;5096264;28;20048;-54
2022/02/25 03:28:19;;;;;;;3.35;1.15;;;17.20;43.10;;;;;;5096811;28;20021;-53
2022/02/25 03:30:45;;;;;;;2.45;0.90;;;17.20;43.20;;;;;;5096938;28;20493;-54
2022/02/25 03:33:11;;;;;;;1.83;0.90;;;17.30;42.90;;;;;;5097531;28;20024;-54
2022/02/25 03:35:38;;;;;;;2.15;1.10;;;17.20;42.60;;;;;;5096507;28;20116;-55
2022/02/25 03:38:04;;;;;;;3.22;0.77;;;17.20;43.20;;;;;;5096080;28;20482;-53
2022/02/25 03:40:30;;;;;;;1.95;0.80;;;17.20;42.80;;;;;;5096283;28;20125;-53
2022/02/25 03:42:56;;;;;;;2.72;1.20;;;17.20;43.00;;;;;;5095827;28;20528;-54
2022/02/25 03:45:22;;;;;;;1.92;0.90;;;17.20;43.00;;;;;;5096323;28;20073;-54
2022/02/25 03:47:48;;;;;;;4.90;0.80;;;17.20;42.60;;;;;;5095961;28;20431;-55
2022/02/25 03:50:14;;;;;;;2.33;0.95;;;17.20;42.80;;;;;;5096023;28;20016;-54
2022/02/25 03:52:40;;;;;;;2.17;0.60;;;17.20;43.10;;;;;;5094880;28;20012;-54
2022/02/25 03:55:10;;;;;;;1.83;0.70;;;17.20;43.00;;;;;;5096242;28;20015;-53
2022/02/25 03:57:36;;;;;;;2.03;0.70;;;17.20;43.10;;;;;;5096814;28;20018;-54
2022/02/25 04:00:03;;;;;;;1.58;0.88;;;17.20;43.10;;;;;;5096306;28;20091;-56
2022/02/25 04:02:30;;;;;;;2.55;1.10;;;17.20;42.60;;;;;;5095916;28;20008;-54
2022/02/25 04:04:56;;;;;;;1.45;0.80;;;17.20;43.00;;;;;;5095674;28;20424;-53
2022/02/25 04:07:23;;;;;;;1.95;0.88;;;17.20;42.90;;;;;;5095419;28;20466;-52
2022/02/25 04:09:50;;;;;;;3.05;0.98;;;17.20;42.80;;;;;;5095687;28;20352;-54
2022/02/25 04:12:17;;;;;;;1.88;0.85;;;17.20;42.60;;;;;;5095700;28;20024;-52
2022/02/25 04:14:43;;;;;;;3.22;0.80;;;17.20;42.90;;;;;;5095701;28;20026;-54
2022/02/25 04:17:10;;;;;;;1.65;0.88;;;17.20;43.00;;;;;;5095193;28;20031;-53
2022/02/25 04:19:39;;;;;;;3.50;0.90;;;17.10;42.50;;;;;;5094410;28;20051;-53
2022/02/25 04:22:05;;;;;;;1.80;0.80;;;17.10;42.70;;;;;;5095186;28;20107;-54
2022/02/25 04:24:31;;;;;;;3.40;0.93;;;17.10;42.90;;;;;;5095374;28;20146;-54
2022/02/25 04:26:58;;;;;;;2.35;1.00;;;17.10;42.40;;;;;;5095235;28;20012;-50
2022/02/25 04:29:23;;;;;;;1.98;0.90;;;17.10;42.80;;;;;;5093928;28;20013;-53
2022/02/25 04:31:50;;;;;;;1.73;0.70;;;17.10;42.80;;;;;;5095432;28;20029;-54
2022/02/25 04:34:16;;;;;;;2.45;0.90;;;17.10;42.70;;;;;;5094136;28;20022;-58
2022/02/25 04:36:42;;;;;;;1.95;1.02;;;17.10;42.70;;;;;;5095026;28;20046;-56
2022/02/25 04:39:09;;;;;;;2.15;1.17;;;17.10;42.70;;;;;;5095276;28;20018;-54
2022/02/25 04:41:35;;;;;;;3.67;0.90;;;17.10;42.90;;;;;;5093315;28;20141;-54
2022/02/25 04:44:01;;;;;;;2.63;0.90;;;17.10;42.80;;;;;;5094722;28;20004;-53
2022/02/25 04:46:27;;;;;;;2.92;0.98;;;17.10;42.50;;;;;;5094733;28;20016;-52
2022/02/25 04:48:54;;;;;;;2.05;0.85;;;17.10;42.30;;;;;;5093747;28;20092;-53
2022/02/25 04:51:21;;;;;;;2.63;1.10;;;17.10;42.40;;;;;;5094911;28;20020;-55
2022/02/25 04:53:47;;;;;;;2.22;0.77;;;17.10;42.40;;;;;;5093446;28;20024;-55
2022/02/25 04:56:13;;;;;;;2.88;0.85;;;17.20;42.10;;;;;;5094615;28;20023;-56
2022/02/25 04:58:39;;;;;;;2.22;0.90;;;17.20;41.90;;;;;;5094529;28;20099;-55
2022/02/25 05:01:05;;;;;;;2.60;0.88;;;17.20;41.70;;;;;;5093115;28;20107;-58
2022/02/25 05:03:32;;;;;;;2.47;0.95;;;17.30;41.50;;;;;;5093155;28;20013;-54
2022/02/25 05:05:58;;;;;;;2.67;1.00;;;17.40;41.50;;;;;;5094515;28;20020;-55
2022/02/25 05:08:25;;;;;;;1.48;0.80;;;17.50;41.30;;;;;;5094262;28;20479;-55
2022/02/25 05:10:51;;;;;;;1.77;0.88;;;17.60;41.20;;;;;;5092988;28;20051;-55
2022/02/25 05:13:16;;;;;;;4.03;1.17;;;17.70;40.90;;;;;;5076238;28;20012;-55
2022/02/25 05:21:11;;;;;;;3.10;1.20;;;18.00;40.40;;;;;;5094108;28;20043;-54
2022/02/25 05:23:37;;;;;;;2.28;0.98;;;18.10;40.20;;;;;;5092821;28;20390;-54
2022/02/25 05:26:02;;;;;;;3.15;0.88;;;18.10;40.00;;;;;;5092917;28;20520;-57
2022/02/25 05:28:29;;;;;;;3.92;1.50;;;18.20;39.90;;;;;;5093045;28;20024;-56
2022/02/25 05:30:55;;;;;;;3.30;1.00;;;18.40;39.70;;;;;;5094136;28;20024;-56
2022/02/25 05:33:22;;;;;;;4.55;1.13;;;18.40;39.50;;;;;;5094165;28;20043;-56
2022/02/25 05:35:49;;;;;;;3.28;1.20;;;18.50;39.50;;;;;;5094040;28;20059;-56
2022/02/25 05:38:14;;;;;;;4.88;1.05;;;18.60;39.30;;;;;;5093965;28;20017;-55
2022/02/25 05:40:40;;;;;;;6.13;1.20;;;18.70;39.20;;;;;;5093508;28;20027;-55
2022/02/25 05:43:07;;;;;;;1.98;0.75;;;18.80;38.90;;;;;;5093429;28;20037;-56
2022/02/25 05:45:33;;;;;;;2.42;1.17;;;18.80;38.80;;;;;;5094106;28;20084;-57
2022/02/25 05:47:59;;;;;;;1.95;0.82;;;19.00;38.70;;;;;;5092851;28;20016;-56
2022/02/25 05:50:24;;;;;;;2.40;1.10;;;19.00;38.60;;;;;;5092477;28;20031;-57
2022/02/25 05:52:51;;;;;;;2.33;1.10;;;19.10;38.40;;;;;;5093881;28;20012;-56
2022/02/25 05:55:18;;;;;;;2.20;0.90;;;19.10;38.40;;;;;;5093508;28;20072;-55
2022/02/25 05:57:44;;;;;;;2.25;1.00;;;19.20;38.30;;;;;;5093515;28;20077;-56
2022/02/25 06:00:11;;;;;;;3.63;1.05;;;19.20;38.20;;;;;;5093402;28;20514;-55
2022/02/25 06:02:37;;;;;;;1.85;1.00;;;19.30;38.20;;;;;;5093795;28;20008;-56
2022/02/25 06:05:04;;;;;;;1.70;0.80;;;19.30;38.00;;;;;;5093712;28;20463;-57
2022/02/25 06:07:30;;;;;;;2.97;0.88;;;19.40;37.90;;;;;;5075962;28;20078;-58
2022/02/25 06:09:56;;;;;;;2.63;0.85;;;19.40;37.90;;;;;;5093451;28;20020;-56
2022/02/25 06:12:23;;;;;;;2.22;0.95;;;19.40;37.90;;;;;;5093850;28;20027;-57
2022/02/25 06:14:49;;;;;;;2.38;0.98;;;19.40;37.90;;;;;;5092610;28;20024;-55
2022/02/25 06:17:15;;;;;;;2.55;0.95;;;19.40;37.90;;;;;;5094020;28;20072;-56
2022/02/25 06:19:41;;;;;;;2.63;1.13;;;19.40;37.90;;;;;;5093848;28;20041;-57
2022/02/25 06:22:07;;;;;;;1.98;0.98;;;19.40;37.90;;;;;;5093025;28;20028;-58
2022/02/25 06:24:34;;;;;;;5.65;1.00;;;19.40;37.90;;;;;;5094125;28;20024;-57
2022/02/25 06:27:00;;;;;;;1.65;0.82;;;19.50;37.80;;;;;;5092982;28;20012;-56
2022/02/25 06:29:25;;;;;;;2.58;0.90;;;19.50;37.80;;;;;;5092656;28;20368;-56
2022/02/25 06:31:51;;;;;;;2.60;0.93;;;19.50;37.80;;;;;;5093891;28;20034;-57
2022/02/25 06:34:17;;;;;;;2.72;0.85;;;19.50;37.80;;;;;;5093913;28;20025;-58
2022/02/25 06:36:43;;;;;;;1.27;0.70;;;19.50;37.80;;;;;;5093905;28;20433;-56
2022/02/25 06:39:09;;;;;;;2.55;0.73;;;19.50;37.80;;;;;;5092422;28;20035;-58
2022/02/25 06:41:35;;;;;;;2.42;1.10;;;19.50;37.70;;;;;;5092046;28;20101;-56
2022/02/25 06:44:01;;;;;;;6.35;1.20;;;19.60;37.70;;;;;;5093975;28;20020;-54
2022/02/25 06:46:27;;;;;;;6.90;1.10;;;19.60;37.70;;;;;;5092858;28;20012;-55
2022/02/25 06:48:53;;;;;;;1.67;0.77;;;19.60;37.70;;;;;;5092315;28;20039;-55
2022/02/25 06:51:19;;;;;;;3.10;1.20;;;19.60;37.60;;;;;;5092852;28;20480;-54
2022/02/25 06:53:47;;;;;;;4.18;0.98;;;19.70;37.60;;;;;;5092575;28;20024;-56
2022/02/25 06:56:14;;;;;;;3.53;1.05;;;19.70;37.50;;;;;;5092355;28;20206;-54
2022/02/25 06:58:39;;;;;;;2.53;1.17;;;19.70;37.60;;;;;;5093631;28;20042;-54
2022/02/25 07:01:05;;;;;;;2.70;1.05;;;19.70;37.60;;;;;;5094835;28;20158;-55
2022/02/25 07:03:32;;;;;;;3.65;0.98;;;19.70;37.60;;;;;;5094960;28;20028;-56
2022/02/25 07:05:57;;;;;;;4.00;0.98;;;19.70;37.50;;;;;;5096049;28;20092;-54
2022/02/25 07:08:23;;;;;;;3.63;1.20;;;19.70;37.60;;;;;;5095760;28;20043;-56
2022/02/25 07:10:51;;;;;;;2.97;1.15;;;19.70;37.50;;;;;;5096180;28;20038;-55
2022/02/25 07:13:17;;;;;;;4.32;1.27;;;19.70;37.50;;;;;;5095535;28;20024;-59
2022/02/25 07:15:43;;;;;;;2.53;0.90;;;19.70;38.00;;;;;;5095869;28;20016;-56
2022/02/25 07:18:15;;;;;;;2.45;1.00;;;19.80;37.50;;;;;;5094116;28;20016;-56
2022/02/25 07:20:44;;;;;;;3.45;0.90;;;19.80;37.50;;;;;;5091910;28;20462;-57
2022/02/25 07:23:10;;;;;;;10.05;1.80;;;19.80;37.60;;;;;;5093672;28;20056;-56
2022/02/25 07:25:39;;;;;;;14.20;2.60;;;19.80;39.30;;;;;;5093034;28;20406;-58
2022/02/25 07:28:05;;;;;;;18.73;2.95;;;19.90;40.10;;;;;;5095593;28;20137;-54
2022/02/25 07:30:32;;;;;;;14.63;2.83;;;20.00;40.10;;;;;;5095305;28;20119;-54
2022/02/25 07:33:02;;;;;;;20.67;3.00;;;20.20;40.40;;;;;;5094512;28;20104;-54
2022/02/25 07:35:29;;;;;;;11.90;2.38;;;20.30;40.40;;;;;;5095866;28;20032;-53
2022/02/25 07:37:57;;;;;;;15.25;2.92;;;20.40;40.20;;;;;;5094680;28;20039;-55
2022/02/25 07:40:23;;;;;;;27.60;4.28;;;20.50;40.00;;;;;;5094480;28;20012;-53
2022/02/25 07:42:50;;;;;;;23.08;4.22;;;20.60;39.30;;;;;;5095182;28;20040;-53
2022/02/25 07:45:16;;;;;;;21.98;4.30;;;20.70;38.80;;;;;;5095705;28;20023;-54
2022/02/25 07:47:41;;;;;;;27.52;4.07;;;20.70;38.30;;;;;;5095673;28;20008;-52
2022/02/25 07:50:12;;;;;;;20.48;3.90;;;20.90;38.10;;;;;;5095081;28;20490;-54
2022/02/25 07:52:38;;;;;;;20.97;4.03;;;21.00;37.60;;;;;;5093343;28;20017;-56
2022/02/25 07:55:04;;;;;;;15.00;3.58;;;21.10;37.70;;;;;;5094812;28;20336;-56
2022/02/25 07:57:31;;;;;;;21.23;3.47;;;21.30;38.40;;;;;;5095816;28;20096;-57
2022/02/25 07:59:56;;;;;;;22.20;4.30;;;21.40;39.20;;;;;;5095228;28;20043;-54
2022/02/25 08:02:22;;;;;;;27.70;4.10;;;21.50;39.80;;;;;;5093243;28;20027;-54
2022/02/25 08:04:48;;;;;;;27.98;4.20;;;21.60;40.50;;;;;;5093745;28;20024;-56
2022/02/25 08:07:14;;;;;;;31.00;4.80;;;21.80;40.90;;;;;;5095046;28;20027;-52
2022/02/25 08:09:40;;;;;;;21.10;2.88;;;21.90;41.40;;;;;;5092425;28;20019;-52
2022/02/25 08:12:06;;;;;;;18.95;3.92;;;21.90;41.70;;;;;;5092369;28;20020;-54
2022/02/25 08:14:37;;;;;;;28.27;4.25;;;21.90;41.90;;;;;;5091804;28;20115;-54
2022/02/25 08:17:04;;;;;;;21.25;4.00;;;21.90;39.90;;;;;;5093582;28;20047;-54
2022/02/25 08:19:30;;;;;;;17.40;3.58;;;21.80;38.50;;;;;;5094259;28;20027;-53
2022/02/25 08:21:56;;;;;;;20.85;3.47;;;21.70;37.80;;;;;;5075859;28;20028;-53
2022/02/25 08:24:21;;;;;;;14.68;3.00;;;21.60;38.10;;;;;;5093055;28;20454;-52
2022/02/25 08:26:47;;;;;;;13.55;3.80;;;21.60;37.90;;;;;;5094563;28;20455;-54
2022/02/25 08:29:13;;;;;;;13.27;3.50;;;21.60;37.80;;;;;;5093819;28;20577;-55
2022/02/25 08:31:41;;;;;;;14.40;3.33;;;21.50;37.70;;;;;;5094187;28;20028;-52
2022/02/25 08:34:07;;;;;;;18.02;3.10;;;21.50;37.70;;;;;;5094456;28;20471;-52
2022/02/25 08:36:33;;;;;;;18.95;3.33;;;21.50;37.40;;;;;;5092674;28;20024;-52
2022/02/25 08:38:58;;;;;;;13.95;3.20;;;21.50;37.10;;;;;;5094657;28;20032;-53
2022/02/25 08:41:24;;;;;;;12.63;2.85;;;21.60;36.80;;;;;;5094997;28;20020;-51
2022/02/25 08:43:49;;;;;;;12.10;3.25;;;21.60;36.90;;;;;;5093014;28;20024;-54
2022/02/25 08:46:15;;;;;;;9.32;2.85;;;21.50;36.70;;;;;;5092972;28;20012;-54
2022/02/25 08:48:41;;;;;;;12.65;3.17;;;21.60;36.60;;;;;;5092352;28;20024;-53
2022/02/25 08:51:07;;;;;;;11.63;2.80;;;21.60;36.50;;;;;;5093881;28;20035;-53
2022/02/25 08:53:33;;;;;;;13.95;2.97;;;21.60;36.40;;;;;;5093802;28;20477;-52
2022/02/25 08:55:58;;;;;;;27.83;2.70;;;21.60;36.30;;;;;;5092849;28;20039;-55
2022/02/25 08:58:24;;;;;;;9.10;2.50;;;21.60;36.10;;;;;;5094624;28;20089;-57
2022/02/25 09:00:51;;;;;;;8.00;2.95;;;21.60;36.10;;;;;;5094058;28;20024;-54
2022/02/25 09:03:17;;;;;;;16.02;3.08;;;21.70;36.20;;;;;;5092107;28;20111;-56
2022/02/25 09:05:43;;;;;;;25.77;3.67;;;21.70;36.10;;;;;;5093922;28;20039;-60
2022/02/25 09:08:10;;;;;;;13.18;3.30;;;21.70;36.20;;;;;;5093752;28;20016;-55
2022/02/25 09:10:36;;;;;;;25.58;3.20;;;21.60;36.60;;;;;;5075569;28;20074;-55
2022/02/25 09:13:02;;;;;;;13.50;2.67;;;21.50;36.80;;;;;;5094002;28;20073;-57
2022/02/25 09:15:28;;;;;;;11.75;3.38;;;21.40;37.00;;;;;;5093746;28;20069;-55
2022/02/25 09:17:57;;;;;;;14.93;3.70;;;21.30;37.10;;;;;;5091612;28;20016;-54
2022/02/25 09:20:23;;;;;;;12.68;2.80;;;21.20;37.30;;;;;;5092792;28;20052;-55
2022/02/25 09:22:49;;;;;;;25.55;3.42;;;21.30;37.00;;;;;;5091906;28;20122;-53
2022/02/25 09:25:16;;;;;;;17.17;3.45;;;21.30;36.90;;;;;;5093198;28;20096;-55
2022/02/25 09:27:42;;;;;;;15.52;3.55;;;21.50;37.40;;;;;;5093945;28;20048;-52
2022/02/25 09:30:15;;;;;;;15.73;3.10;;;21.60;37.50;;;;;;5093283;28;20046;-56
2022/02/25 09:32:42;;;;;;;19.80;3.70;;;21.70;37.60;;;;;;5092692;28;20009;-50
2022/02/25 09:35:08;;;;;;;18.80;3.03;;;21.80;37.90;;;;;;5074646;28;20092;-53
2022/02/25 09:37:35;;;;;;;16.88;3.63;;;21.90;38.00;;;;;;5092819;28;20047;-53
2022/02/25 09:40:10;;;;;;;14.52;3.40;;;22.00;38.10;;;;;;5092877;28;20119;-51
2022/02/25 09:42:39;;;;;;;11.60;2.63;;;21.90;38.80;;;;;;5093130;28;20044;-60
2022/02/25 09:45:06;;;;;;;12.85;2.80;;;21.80;39.20;;;;;;5092443;28;20006;-51
2022/02/25 09:47:35;;;;;;;10.88;2.67;;;21.80;39.70;;;;;;5090985;28;20046;-57
2022/02/25 09:50:04;;;;;;;13.80;2.92;;;21.80;39.70;;;;;;5092898;28;20122;-53
2022/02/25 09:52:30;;;;;;;13.32;2.55;;;21.80;40.00;;;;;;5092254;28;20091;-52
2022/02/25 09:54:55;;;;;;;8.52;2.70;;;21.80;40.70;;;;;;5092349;28;20423;-51
2022/02/25 09:57:21;;;;;;;12.88;3.13;;;21.80;40.70;;;;;;5091946;28;20471;-54
2022/02/25 09:59:48;;;;;;;12.95;3.38;;;21.80;40.80;;;;;;5092228;28;20022;-53
2022/02/25 10:02:13;;;;;;;10.88;2.70;;;21.80;41.10;;;;;;5091767;28;20382;-52
2022/02/25 10:04:39;;;;;;;13.43;3.25;;;21.80;41.10;;;;;;5090288;28;20012;-51
2022/02/25 10:07:25;;;;;;;14.85;2.97;;;21.90;41.30;;;;;;5091675;28;20412;-54
2022/02/25 10:09:52;;;;;;;11.95;3.13;;;21.90;41.50;;;;;;5073702;28;20008;-54
2022/02/25 10:12:17;;;;;;;14.13;3.22;;;21.70;40.10;;;;;;5090520;28;20062;-41
2022/02/25 10:14:46;;;;;;;16.70;3.55;;;21.60;40.40;;;;;;5092446;28;20040;-58
2022/02/25 10:17:20;;;;;;;15.63;3.70;;;21.60;40.10;;;;;;5074417;28;20026;-57
2022/02/25 10:19:53;;;;;;;14.45;2.85;;;21.60;38.80;;;;;;5093043;28;20031;-58
2022/02/25 10:22:22;;;;;;;14.05;3.22;;;21.70;38.20;;;;;;5093485;28;20052;-57
2022/02/25 10:24:56;;;;;;;12.05;3.53;;;21.70;38.00;;;;;;5093352;28;20012;-57
2022/02/25 10:27:25;;;;;;;13.60;3.28;;;21.60;37.60;;;;;;5092970;28;20012;-57
2022/02/25 10:29:59;;;;;;;11.52;3.08;;;21.60;37.10;;;;;;5093475;28;20016;-55
2022/02/25 10:32:34;;;;;;;11.00;3.20;;;21.60;37.00;;;;;;5091881;28;20035;-53
2022/02/25 10:35:18;;;;;;;12.85;3.15;;;21.60;36.70;;;;;;5091701;28;20431;-53
2022/02/25 10:38:00;;;;;;;16.17;3.22;;;21.70;37.20;;;;;;5090095;28;20017;-56
2022/02/25 10:40:27;;;;;;;19.40;3.60;;;21.80;37.40;;;;;;5091820;28;20020;-58
2022/02/25 10:42:53;;;;;;;17.95;3.47;;;22.00;38.10;;;;;;5090668;28;20044;-55
2022/02/25 10:45:36;;;;;;;14.18;3.10;;;22.20;38.90;;;;;;5090957;28;20131;-58
2022/02/25 10:48:05;;;;;;;21.83;4.10;;;22.30;39.30;;;;;;5092007;28;20020;-55
2022/02/25 10:50:41;;;;;;;14.32;3.65;;;22.40;39.40;;;;;;5089765;28;20013;-56
2022/02/25 10:53:06;;;;;;;15.27;3.53;;;22.50;39.90;;;;;;5074842;28;20014;-52
2022/02/25 10:55:33;;;;;;;18.50;3.45;;;22.70;40.00;;;;;;5091196;28;20095;-52
2022/02/25 10:58:00;;;;;;;19.65;3.28;;;22.80;40.10;;;;;;5089875;28;20023;-53
2022/02/25 11:00:26;;;;;;;19.23;3.13;;;22.60;39.80;;;;;;5092392;28;20017;-53
2022/02/25 11:02:52;;;;;;;21.45;3.75;;;22.40;39.20;;;;;;5091511;28;20009;-53
2022/02/25 11:05:24;;;;;;;17.75;3.47;;;22.10;39.90;;;;;;5092996;28;20024;-56
2022/02/25 11:08:00;;;;;;;20.02;3.22;;;22.00;40.40;;;;;;5092709;28;20032;-55
2022/02/25 11:10:30;;;;;;;24.80;3.83;;;21.90;40.70;;;;;;5093326;28;20012;-54
2022/02/25 11:12:57;;;;;;;23.50;3.92;;;21.70;40.80;;;;;;5094344;28;20013;-54
2022/02/25 11:15:28;;;;;;;14.80;3.10;;;21.70;40.90;;;;;;5094343;28;20024;-54
2022/02/25 11:17:55;;;;;;;17.92;3.00;;;21.60;40.90;;;;;;5094449;28;20024;-53
2022/02/25 11:20:25;;;;;;;17.83;3.47;;;21.50;41.00;;;;;;5093860;28;20084;-53
2022/02/25 11:23:01;;;;;;;17.42;3.35;;;21.50;41.10;;;;;;5093097;28;20494;-54
2022/02/25 11:25:27;;;;;;;26.50;3.63;;;21.40;41.20;;;;;;5092987;28;20017;-54
2022/02/25 11:27:53;;;;;;;13.70;3.03;;;21.40;41.20;;;;;;5091354;28;20043;-53
2022/02/25 11:30:35;;;;;;;13.07;2.72;;;21.40;41.10;;;;;;5092404;28;20467;-56
2022/02/25 11:33:07;;;;;;;10.40;2.85;;;21.30;41.00;;;;;;5092356;28;20030;-55
2022/02/25 11:35:55;;;;;;;16.63;3.25;;;21.30;41.00;;;;;;5092164;28;20539;-57
2022/02/25 11:38:34;;;;;;;14.02;3.30;;;21.30;39.40;;;;;;5082263;28;20091;-60
2022/02/25 11:41:05;;;;;;;11.82;3.08;;;21.10;37.10;;;;;;5092412;28;20454;-57
2022/02/25 11:43:34;;;;;;;11.93;3.05;;;20.90;36.40;;;;;;5092258;28;20483;-53
2022/02/25 11:46:00;;;;;;;9.98;3.05;;;20.60;35.50;;;;;;5091004;28;20028;-51
2022/02/25 11:48:36;;;;;;;13.20;2.45;;;19.40;34.40;;;;;;5094073;28;20140;-56
2022/02/25 11:51:02;;;;;;;19.73;3.17;;;18.90;36.60;;;;;;5094865;28;20194;-52
2022/02/25 11:53:30;;;;;;;16.10;2.72;;;19.30;37.60;;;;;;5093455;28;20107;-53
2022/02/25 11:56:16;;;;;;;22.73;2.75;;;19.70;37.30;;;;;;5095205;28;20117;-53
2022/02/25 11:58:49;;;;;;;25.73;3.03;;;20.00;37.10;;;;;;5094903;28;20020;-55
2022/02/25 12:01:20;;;;;;;15.93;3.05;;;20.30;37.10;;;;;;5093631;28;20146;-54
2022/02/25 12:04:07;;;;;;;15.18;2.88;;;20.40;37.30;;;;;;5093276;28;20020;-56
2022/02/25 12:07:11;;;;;;;12.82;2.97;;;20.50;37.90;;;;;;5094480;28;20012;-56
2022/02/25 12:09:55;;;;;;;10.02;3.17;;;20.80;36.60;;;;;;5032083;28;20017;-55
2022/02/25 12:12:24;;;;;;;13.00;2.38;;;20.80;36.60;;;;;;5032238;28;20095;-50
2022/02/25 12:15:14;;;;;;;8.52;2.25;;;20.90;36.10;;;;;;5031591;28;20022;-55
2022/02/25 12:17:50;;;;;;;9.85;2.88;;;21.00;37.50;;;;;;5031303;28;20037;-53
2022/02/25 12:20:20;;;;;;;10.77;2.33;;;21.00;37.70;;;;;;5031262;28;20069;-56
2022/02/25 12:22:57;;;;;;;8.23;2.50;;;21.10;36.40;;;;;;5031301;28;20124;-55
2022/02/25 12:25:57;;;;;;;23.83;2.72;;;21.20;36.60;;;;;;5013834;28;20144;-53
2022/02/25 12:28:28;;;;;;;7.47;2.67;;;21.30;36.30;;;;;;4991275;28;20137;-53
2022/02/25 12:31:04;;;;;;;13.35;2.83;;;21.30;36.50;;;;;;4991866;28;20088;-57
2022/02/25 12:33:43;;;;;;;8.32;2.50;;;21.30;36.30;;;;;;4991818;28;20022;-53
2022/02/25 12:36:12;;;;;;;13.52;2.80;;;21.30;37.20;;;;;;4991701;28;20041;-55
2022/02/25 12:38:47;;;;;;;18.80;3.55;;;21.30;36.70;;;;;;4991151;28;20109;-53
2022/02/25 12:41:13;;;;;;;19.58;3.15;;;20.70;35.60;;;;;;4991346;28;20035;-50
2022/02/25 12:43:58;;;;;;;17.88;3.28;;;20.30;37.60;;;;;;5035476;28;20029;-54
2022/02/25 12:46:26;;;;;;;12.40;3.35;;;19.50;37.50;;;;;;5071648;28;20021;-50
2022/02/25 12:48:52;;;;;;;18.48;3.33;;;19.00;37.20;;;;;;5054653;28;20115;-53
2022/02/25 12:51:21;;;;;;;13.15;3.33;;;19.20;38.50;;;;;;5070872;28;20041;-56